Observation data for Andrews on 08/12/2019      Previous  Date  Next       Current Mesonet Observations  Soil Data  Daily Summary Page  Observations in Plain Language
KANS 120500Z 15006KT 29/11 A3001 RMK A01 T02900109  RH  033%=      5-min Rain = 0
KANS 120505Z 15006KT 29/11 A30 RMK A01 T02880109  RH  033%=      5-min Rain = 0
KANS 120510Z 15006KT 29/11 A30 RMK A01 T02870109  RH  034%=      5-min Rain = 0
KANS 120515Z 14006KT 29/11 A30 RMK A01 T02850109  RH  034%=      5-min Rain = 0
KANS 120520Z 15006KT 29/11 A30 RMK A01 T02860110  RH  034%=      5-min Rain = 0
KANS 120525Z 16005KT 29/11 A30 RMK A01 T02850110  RH  034%=      5-min Rain = 0
KANS 120530Z 17004KT 28/11 A3001 RMK A01 T02830110  RH  035%=      5-min Rain = 0
KANS 120535Z 16005KT 28/11 A3001 RMK A01 T02810110  RH  035%=      5-min Rain = 0
KANS 120540Z 15005KT 28/11 A3001 RMK A01 T02790111  RH  036%=      5-min Rain = 0
KANS 120545Z 15006KT 28/11 A3001 RMK A01 T02780113  RH  036%=      5-min Rain = 0
KANS 120550Z 17006KT 28/11 A3001 RMK A01 T02770114  RH  037%=      5-min Rain = 0
KANS 120555Z 17006KT 28/12 A3001 RMK A01 T02770115  RH  037%=      5-min Rain = 0
KANS 120600Z 17006KT 28/12 A3001 RMK A01 T02760115  RH  037%=      5-min Rain = 0
KANS 120605Z 17005KT 28/12 A3001 RMK A01 T02750116  RH  038%=      5-min Rain = 0
KANS 120610Z 16006KT 27/12 A3001 RMK A01 T02730117  RH  038%=      5-min Rain = 0
KANS 120615Z 17007KT 27/12 A3001 RMK A01 T02740116  RH  038%=      5-min Rain = 0
KANS 120620Z 17007KT 28/11 A3001 RMK A01 T02770114  RH  037%=      5-min Rain = 0
KANS 120625Z 16006KT 28/11 A3001 RMK A01 T02790112  RH  036%=      5-min Rain = 0
KANS 120630Z 16005KT 28/11 A3001 RMK A01 T02780113  RH  037%=      5-min Rain = 0
KANS 120635Z 15004KT 28/11 A3001 RMK A01 T02760114  RH  037%=      5-min Rain = 0
KANS 120640Z 16004KT 28/12 A3001 RMK A01 T02750115  RH  038%=      5-min Rain = 0
KANS 120645Z 16004KT 27/12 A3001 RMK A01 T02730115  RH  038%=      5-min Rain = 0
KANS 120650Z 17004KT 27/12 A3001 RMK A01 T02710116  RH  039%=      5-min Rain = 0
KANS 120655Z 17005KT 27/12 A3001 RMK A01 T02700115  RH  039%=      5-min Rain = 0
KANS 120700Z 17006KT 27/11 A30 RMK A01 T02710114  RH  038%=      5-min Rain = 0
KANS 120705Z 17006KT 27/11 A30 RMK A01 T02730113  RH  038%=      5-min Rain = 0
KANS 120710Z 17005KT 27/11 A30 RMK A01 T02730113  RH  037%=      5-min Rain = 0
KANS 120715Z 16005KT 27/11 A30 RMK A01 T02730113  RH  038%=      5-min Rain = 0
KANS 120720Z 17005KT 27/11 A2999 RMK A01 T02710114  RH  038%=      5-min Rain = 0
KANS 120725Z 17005KT 27/11 A2999 RMK A01 T02690114  RH  039%=      5-min Rain = 0
KANS 120730Z 17005KT 27/11 A2999 RMK A01 T02680114  RH  039%=      5-min Rain = 0
KANS 120735Z 16005KT 27/12 A2999 RMK A01 T02670115  RH  039%=      5-min Rain = 0
KANS 120740Z 16005KT 27/12 A2999 RMK A01 T02650115  RH  040%=      5-min Rain = 0
KANS 120745Z 16005KT 26/12 A2999 RMK A01 T02640115  RH  040%=      5-min Rain = 0
KANS 120750Z 16006KT 26/12 A2999 RMK A01 T02640116  RH  040%=      5-min Rain = 0
KANS 120755Z 16006KT 26/12 A2999 RMK A01 T02630116  RH  040%=      5-min Rain = 0
KANS 120800Z 17006KT 26/12 A2999 RMK A01 T02620116  RH  041%=      5-min Rain = 0
KANS 120805Z 16005KT 26/12 A2999 RMK A01 T02610117  RH  041%=      5-min Rain = 0
KANS 120810Z 17005KT 26/12 A2999 RMK A01 T02600118  RH  042%=      5-min Rain = 0
KANS 120815Z 17005KT 26/12 A2998 RMK A01 T02580119  RH  043%=      5-min Rain = 0
KANS 120820Z 17005KT 26/12 A2998 RMK A01 T02550119  RH  043%=      5-min Rain = 0
KANS 120825Z 18005KT 25/12 A2998 RMK A01 T02530120  RH  044%=      5-min Rain = 0
KANS 120830Z 17005KT 25/12 A2998 RMK A01 T02510120  RH  045%=      5-min Rain = 0
KANS 120835Z 17006KT 25/12 A2998 RMK A01 T02500121  RH  045%=      5-min Rain = 0
KANS 120840Z 17005KT 25/12 A2998 RMK A01 T02510122  RH  045%=      5-min Rain = 0
KANS 120845Z 18005KT 25/12 A2998 RMK A01 T02520122  RH  045%=      5-min Rain = 0
KANS 120850Z 18004KT 25/12 A2998 RMK A01 T02510123  RH  046%=      5-min Rain = 0
KANS 120855Z 18004KT 25/12 A2998 RMK A01 T02500123  RH  046%=      5-min Rain = 0
KANS 120900Z 18004KT 25/12 A2998 RMK A01 T02490124  RH  046%=      5-min Rain = 0
KANS 120905Z 18004KT 25/12 A2999 RMK A01 T02480124  RH  047%=      5-min Rain = 0
KANS 120910Z 19004KT 25/13 A2999 RMK A01 T02470125  RH  047%=      5-min Rain = 0
KANS 120915Z 17005KT 25/13 A2998 RMK A01 T02460125  RH  048%=      5-min Rain = 0
KANS 120920Z 17005KT 25/13 A2998 RMK A01 T02450125  RH  048%=      5-min Rain = 0
KANS 120925Z 17004KT 25/13 A2998 RMK A01 T02460126  RH  048%=      5-min Rain = 0
KANS 120930Z 17003KT 25/13 A2998 RMK A01 T02460127  RH  048%=      5-min Rain = 0
KANS 120935Z 15003KT 25/13 A2998 RMK A01 T02460127  RH  048%=      5-min Rain = 0
KANS 120940Z 14003KT 25/13 A2998 RMK A01 T02460127  RH  048%=      5-min Rain = 0
KANS 120945Z 15004KT 25/13 A2998 RMK A01 T02450127  RH  049%=      5-min Rain = 0
KANS 120950Z 15004KT 24/13 A2998 RMK A01 T02440128  RH  049%=      5-min Rain = 0
KANS 120955Z 15004KT 24/13 A2998 RMK A01 T02430129  RH  050%=      5-min Rain = 0
KANS 121000Z 14004KT 24/13 A2998 RMK A01 T02420129  RH  050%=      5-min Rain = 0
KANS 121005Z 14004KT 24/13 A2998 RMK A01 T02410130  RH  051%=      5-min Rain = 0
KANS 121010Z 13003KT 24/13 A2998 RMK A01 T02410130  RH  051%=      5-min Rain = 0
KANS 121015Z 13003KT 24/13 A2998 RMK A01 T02410129  RH  051%=      5-min Rain = 0
KANS 121020Z 12003KT 24/13 A2999 RMK A01 T02400129  RH  051%=      5-min Rain = 0
KANS 121025Z 13003KT 24/13 A2999 RMK A01 T02390130  RH  051%=      5-min Rain = 0
KANS 121030Z 13003KT 24/13 A2999 RMK A01 T02390131  RH  052%=      5-min Rain = 0
KANS 121035Z 12004KT 24/13 A2999 RMK A01 T02380131  RH  052%=      5-min Rain = 0
KANS 121040Z 12005KT 24/13 A2998 RMK A01 T02360131  RH  053%=      5-min Rain = 0
KANS 121045Z 12005KT 24/13 A2998 RMK A01 T02350133  RH  054%=      5-min Rain = 0
KANS 121050Z 12005KT 24/13 A2998 RMK A01 T02360134  RH  054%=      5-min Rain = 0
KANS 121055Z 12005KT 24/14 A2998 RMK A01 T02360135  RH  054%=      5-min Rain = 0
KANS 121100Z 13005KT 24/14 A2998 RMK A01 T02350135  RH  055%=      5-min Rain = 0
KANS 121105Z 13005KT 23/14 A2998 RMK A01 T02340136  RH  055%=      5-min Rain = 0
KANS 121110Z 13005KT 23/14 A2998 RMK A01 T02340136  RH  055%=      5-min Rain = 0
KANS 121115Z 13004KT 24/14 A2998 RMK A01 T02350137  RH  055%=      5-min Rain = 0
KANS 121120Z 13004KT 23/14 A2998 RMK A01 T02340136  RH  055%=      5-min Rain = 0
KANS 121125Z 13004KT 23/14 A2998 RMK A01 T02320137  RH  056%=      5-min Rain = 0
KANS 121130Z 13005KT 23/14 A2998 RMK A01 T02320137  RH  056%=      5-min Rain = 0
KANS 121135Z 12005KT 23/14 A2999 RMK A01 T02320137  RH  056%=      5-min Rain = 0
KANS 121140Z 13005KT 23/14 A2999 RMK A01 T02310137  RH  057%=      5-min Rain = 0
KANS 121145Z 12005KT 23/14 A2999 RMK A01 T02300137  RH  057%=      5-min Rain = 0
KANS 121150Z 13005KT 23/14 A2999 RMK A01 T02290137  RH  057%=      5-min Rain = 0
KANS 121155Z 13005KT 23/14 A2999 RMK A01 T02280137  RH  057%=      5-min Rain = 0
KANS 121200Z 13004KT 23/14 A2999 RMK A01 T02280138  RH  058%=      5-min Rain = 0
KANS 121205Z 13005KT 23/14 A2999 RMK A01 T02280138  RH  058%=      5-min Rain = 0
KANS 121210Z 13006KT 23/14 A2999 RMK A01 T02290138  RH  058%=      5-min Rain = 0
KANS 121215Z 13006KT 23/14 A2999 RMK A01 T02310138  RH  057%=      5-min Rain = 0
KANS 121220Z 13006KT 23/14 A2999 RMK A01 T02320137  RH  056%=      5-min Rain = 0
KANS 121225Z 14006KT 23/14 A2999 RMK A01 T02330137  RH  056%=      5-min Rain = 0
KANS 121230Z 14006KT 23/14 A2999 RMK A01 T02340137  RH  056%=      5-min Rain = 0
KANS 121235Z 14006KT 24/14 A30 RMK A01 T02350137  RH  055%=      5-min Rain = 0
KANS 121240Z 15005KT 24/14 A30 RMK A01 T02350138  RH  055%=      5-min Rain = 0
KANS 121245Z 15005KT 24/14 A30 RMK A01 T02360138  RH  055%=      5-min Rain = 0
KANS 121250Z 15005KT 24/14 A30 RMK A01 T02380139  RH  055%=      5-min Rain = 0
KANS 121255Z 15005KT 24/14 A30 RMK A01 T02400138  RH  054%=      5-min Rain = 0
KANS 121300Z 16005KT 24/14 A30 RMK A01 T02410139  RH  054%=      5-min Rain = 0
KANS 121305Z 16004KT 24/14 A3001 RMK A01 T02430139  RH  053%=      5-min Rain = 0
KANS 121310Z 17005KT 25/14 A3001 RMK A01 T02450138  RH  052%=      5-min Rain = 0
KANS 121315Z 16005KT 25/14 A3001 RMK A01 T02480138  RH  052%=      5-min Rain = 0
KANS 121320Z 16005KT 25/14 A3001 RMK A01 T02510138  RH  051%=      5-min Rain = 0
KANS 121325Z 17005KT 25/14 A3001 RMK A01 T02540138  RH  050%=      5-min Rain = 0
KANS 121330Z 17007KT 26/14 A3001 RMK A01 T02600137  RH  048%=      5-min Rain = 0
KANS 121335Z 17007KT 27/14 A3002 RMK A01 T02650136  RH  046%=      5-min Rain = 0
KANS 121340Z 17008KT 27/14 A3002 RMK A01 T02690136  RH  045%=      5-min Rain = 0
KANS 121345Z 18008KT 27/14 A3002 RMK A01 T02710135  RH  044%=      5-min Rain = 0
KANS 121350Z 18010KT 27/13 A3002 RMK A01 T02740134  RH  043%=      5-min Rain = 0
KANS 121355Z 18009KT 28/14 A3002 RMK A01 T02750135  RH  043%=      5-min Rain = 0
KANS 121400Z 19012KT 28/13 A3002 RMK A01 T02770134  RH  042%=      5-min Rain = 0
KANS 121405Z 19011KT 28/14 A3002 RMK A01 T02780135  RH  042%=      5-min Rain = 0
KANS 121410Z 19011G17KT 28/14 A3002 RMK A01 T02800135  RH  042%=      5-min Rain = 0
KANS 121415Z 19008G13KT 29/14 A3002 RMK A01 T02850136  RH  041%=      5-min Rain = 0
KANS 121420Z 19009G14KT 29/14 A3002 RMK A01 T02900136  RH  040%=      5-min Rain = 0
KANS 121425Z 19010KT 29/14 A3002 RMK A01 T02900135  RH  039%=      5-min Rain = 0
KANS 121430Z 19009KT 29/14 A3002 RMK A01 T02920135  RH  039%=      5-min Rain = 0
KANS 121435Z 18008G13KT 30/14 A3002 RMK A01 T02950135  RH  038%=      5-min Rain = 0
KANS 121440Z 19010KT 30/13 A3002 RMK A01 T02950133  RH  038%=      5-min Rain = 0
KANS 121445Z 19009KT 30/13 A3002 RMK A01 T02980133  RH  037%=      5-min Rain = 0
KANS 121450Z 20008KT 30/13 A3002 RMK A01 T03000132  RH  036%=      5-min Rain = 0
KANS 121455Z 19009KT 30/13 A3002 RMK A01 T03030129  RH  035%=      5-min Rain = 0
KANS 121500Z 20009KT 31/13 A3002 RMK A01 T03050129  RH  035%=      5-min Rain = 0
KANS 121505Z 19008KT 31/13 A3002 RMK A01 T03070129  RH  034%=      5-min Rain = 0
KANS 121510Z 20006KT 31/13 A3002 RMK A01 T03110130  RH  034%=      5-min Rain = 0
KANS 121515Z 19008KT 31/13 A3002 RMK A01 T03130129  RH  033%=      5-min Rain = 0
KANS 121520Z 21006KT 32/13 A3002 RMK A01 T03150128  RH  032%=      5-min Rain = 0
KANS 121525Z 19007KT 32/13 A3001 RMK A01 T03180129  RH  032%=      5-min Rain = 0
KANS 121530Z 21006KT 32/13 A3001 RMK A01 T03220128  RH  031%=      5-min Rain = 0
KANS 121535Z 23007KT 32/13 A3001 RMK A01 T03230126  RH  031%=      5-min Rain = 0
KANS 121540Z 22005KT 33/13 A3001 RMK A01 T03250125  RH  030%=      5-min Rain = 0
KANS 121545Z 21005KT 33/13 A3001 RMK A01 T03290125  RH  030%=      5-min Rain = 0
KANS 121550Z 24005KT 33/13 A3001 RMK A01 T03330126  RH  029%=      5-min Rain = 0
KANS 121555Z 24004KT 34/13 A3001 RMK A01 T03370125  RH  028%=      5-min Rain = 0
KANS 121600Z 22005KT 33/12 A3001 RMK A01 T03340121  RH  028%=      5-min Rain = 0
KANS 121605Z 26006KT 34/12 A3001 RMK A01 T03360120  RH  027%=      5-min Rain = 0
KANS 121610Z 26006G11KT 34/12 A3001 RMK A01 T03380119  RH  027%=      5-min Rain = 0
KANS 121615Z 25005KT 34/12 A3001 RMK A01 T03380119  RH  027%=      5-min Rain = 0
KANS 121620Z 26007KT 34/12 A3001 RMK A01 T03400118  RH  026%=      5-min Rain = 0
KANS 121625Z 26006KT 34/12 A3001 RMK A01 T03440116  RH  025%=      5-min Rain = 0
KANS 121630Z 25005G10KT 35/12 A30 RMK A01 T03460116  RH  025%=      5-min Rain = 0
KANS 121635Z 26004G10KT 35/11 A30 RMK A01 T03480114  RH  025%=      5-min Rain = 0
KANS 121640Z 26008G13KT 35/11 A30 RMK A01 T03500111  RH  024%=      5-min Rain = 0
KANS 121645Z 28008G14KT 35/11 A30 RMK A01 T03520111  RH  024%=      5-min Rain = 0
KANS 121650Z 26007KT 36/11 A30 RMK A01 T03560110  RH  023%=      5-min Rain = 0
KANS 121655Z 26008KT 36/11 A30 RMK A01 T03560110  RH  023%=      5-min Rain = 0
KANS 121700Z 26005G11KT 36/11 A30 RMK A01 T03570109  RH  023%=      5-min Rain = 0
KANS 121705Z 24006G11KT 36/11 A30 RMK A01 T03560109  RH  023%=      5-min Rain = 0
KANS 121710Z 23010KT 36/11 A30 RMK A01 T03570110  RH  023%=      5-min Rain = 0
KANS 121715Z 23007G13KT 36/11 A30 RMK A01 T03570108  RH  023%=      5-min Rain = 0
KANS 121720Z 25007KT 36/11 A30 RMK A01 T03600107  RH  022%=      5-min Rain = 0
KANS 121725Z 25008G14KT 36/11 A30 RMK A01 T03610108  RH  022%=      5-min Rain = 0
KANS 121730Z 27009G14KT 36/10 A2999 RMK A01 T03620104  RH  021%=      5-min Rain = 0
KANS 121735Z 28007KT 37/11 A2999 RMK A01 T03650108  RH  022%=      5-min Rain = 0
KANS 121740Z 24008KT 37/11 A2999 RMK A01 T03680105  RH  021%=      5-min Rain = 0
KANS 121745Z 23007G20KT 36/10 A2999 RMK A01 T03640103  RH  021%=      5-min Rain = 0
KANS 121750Z 25009G15KT 37/11 A2999 RMK A01 T03700107  RH  021%=      5-min Rain = 0
KANS 121755Z 23008G13KT 37/10 A2999 RMK A01 T03700102  RH  020%=      5-min Rain = 0
KANS 121800Z 22008KT 37/10 A2999 RMK A01 T03670102  RH  020%=      5-min Rain = 0
KANS 121805Z 26010G15KT 37/10 A2998 RMK A01 T03710103  RH  020%=      5-min Rain = 0
KANS 121810Z 26006G11KT 37/10 A2998 RMK A01 T03690103  RH  020%=      5-min Rain = 0
KANS 121815Z 24010KT 37/10 A2998 RMK A01 T03690103  RH  020%=      5-min Rain = 0
KANS 121820Z 22009KT 37/10 A2998 RMK A01 T03690100  RH  020%=      5-min Rain = 0
KANS 121825Z 21006KT 37/10 A2998 RMK A01 T03710101  RH  020%=      5-min Rain = 0
KANS 121830Z 21008G13KT 37/10 A2998 RMK A01 T03710097  RH  019%=      5-min Rain = 0
KANS 121835Z 23008G13KT 37/10 A2998 RMK A01 T03720099  RH  020%=      5-min Rain = 0
KANS 121840Z 20008G13KT 38/10 A2998 RMK A01 T03750099  RH  019%=      5-min Rain = 0
KANS 121845Z 19006G11KT 37/10 A2998 RMK A01 T03710098  RH  020%=      5-min Rain = 0
KANS 121850Z 24010KT 38/09 A2998 RMK A01 T03760094  RH  019%=      5-min Rain = 0
KANS 121855Z 24007G13KT 38/09 A2998 RMK A01 T03790090  RH  018%=      5-min Rain = 0
KANS 121900Z 23008G19KT 38/10 A2997 RMK A01 T03780095  RH  018%=      5-min Rain = 0
KANS 121905Z 20010G16KT 38/09 A2997 RMK A01 T03780090  RH  018%=      5-min Rain = 0
KANS 121910Z 20008G13KT 38/09 A2997 RMK A01 T03770089  RH  018%=      5-min Rain = 0
KANS 121915Z 21011G17KT 38/09 A2997 RMK A01 T03790091  RH  018%=      5-min Rain = 0
KANS 121920Z 22009G15KT 38/09 A2997 RMK A01 T03800090  RH  018%=      5-min Rain = 0
KANS 121925Z 23010G16KT 38/09 A2997 RMK A01 T03810087  RH  017%=      5-min Rain = 0
KANS 121930Z 21008G17KT 38/09 A2996 RMK A01 T03780087  RH  017%=      5-min Rain = 0
KANS 121935Z 20009G16KT 38/08 A2996 RMK A01 T03820083  RH  017%=      5-min Rain = 0
KANS 121940Z 23010G16KT 39/09 A2996 RMK A01 T03870087  RH  017%=      5-min Rain = 0
KANS 121945Z 22010G17KT 38/08 A2996 RMK A01 T03830084  RH  017%=      5-min Rain = 0
KANS 121950Z 22008G17KT 38/09 A2996 RMK A01 T03820086  RH  017%=      5-min Rain = 0
KANS 121955Z 21012G21KT 38/09 A2996 RMK A01 T03840086  RH  017%=      5-min Rain = 0
KANS 122000Z 20006KT 39/08 A2995 RMK A01 T03860080  RH  016%=      5-min Rain = 0
KANS 122005Z 24008KT 39/08 A2995 RMK A01 T03880083  RH  016%=      5-min Rain = 0
KANS 122010Z 19010KT 39/08 A2995 RMK A01 T03890080  RH  016%=      5-min Rain = 0
KANS 122015Z 21009G16KT 39/08 A2994 RMK A01 T03920081  RH  016%=      5-min Rain = 0
KANS 122020Z 19010G17KT 39/08 A2994 RMK A01 T03900075  RH  015%=      5-min Rain = 0
KANS 122025Z 23011G22KT 39/08 A2994 RMK A01 T03900083  RH  016%=      5-min Rain = 0
KANS 122030Z 22008G13KT 39/08 A2994 RMK A01 T03910080  RH  016%=      5-min Rain = 0
KANS 122035Z 21007G13KT 39/08 A2993 RMK A01 T03910077  RH  015%=      5-min Rain = 0
KANS 122040Z 20009G14KT 39/08 A2993 RMK A01 T03890080  RH  016%=      5-min Rain = 0
KANS 122045Z 20011G21KT 39/08 A2993 RMK A01 T03930082  RH  015%=      5-min Rain = 0
KANS 122050Z 22012G19KT 39/09 A2993 RMK A01 T03910086  RH  016%=      5-min Rain = 0
KANS 122055Z 23007G15KT 39/08 A2993 RMK A01 T03900080  RH  016%=      5-min Rain = 0
KANS 122100Z 22009G16KT 39/08 A2993 RMK A01 T03910078  RH  015%=      5-min Rain = 0
KANS 122105Z 22008G15KT 39/08 A2992 RMK A01 T03910081  RH  016%=      5-min Rain = 0
KANS 122110Z 21011G19KT 39/07 A2992 RMK A01 T03910072  RH  015%=      5-min Rain = 0
KANS 122115Z 21010G15KT 39/07 A2992 RMK A01 T03910070  RH  014%=      5-min Rain = 0
KANS 122120Z 24004G9KT 39/08 A2992 RMK A01 T03910077  RH  015%=      5-min Rain = 0
KANS 122125Z 22006G17KT 40/08 A2991 RMK A01 T03970076  RH  015%=      5-min Rain = 0
KANS 122130Z 25010G15KT 39/09 A2991 RMK A01 T03930085  RH  016%=      5-min Rain = 0
KANS 122135Z 26006G11KT 39/08 A2991 RMK A01 T03870084  RH  016%=      5-min Rain = 0
KANS 122140Z 24007G14KT 39/09 A2991 RMK A01 T03900085  RH  016%=      5-min Rain = 0
KANS 122145Z 24008G14KT 39/08 A2991 RMK A01 T03870083  RH  016%=      5-min Rain = 0
KANS 122150Z 21010G15KT 39/09 A2991 RMK A01 T03850086  RH  017%=      5-min Rain = 0
KANS 122155Z 24008KT 39/08 A2991 RMK A01 T03900082  RH  016%=      5-min Rain = 0
KANS 122200Z 25008KT 39/08 A2991 RMK A01 T03940083  RH  016%=      5-min Rain = 0
KANS 122205Z 26007KT 40/08 A2991 RMK A01 T03980082  RH  015%=      5-min Rain = 0
KANS 122210Z 25009G15KT 40/08 A2991 RMK A01 T03980077  RH  015%=      5-min Rain = 0
KANS 122215Z 22011G17KT 40/08 A299 RMK A01 T03960076  RH  015%=      5-min Rain = 0
KANS 122220Z 22009G15KT 39/08 A299 RMK A01 T03940075  RH  015%=      5-min Rain = 0
KANS 122225Z 30007G14KT 40/07 A299 RMK A01 T03960071  RH  014%=      5-min Rain = 0
KANS 122230Z 28006KT 39/07 A299 RMK A01 T03930070  RH  014%=      5-min Rain = 0
KANS 122235Z 24009KT 40/07 A299 RMK A01 T03950072  RH  014%=      5-min Rain = 0
KANS 122240Z 28007KT 40/07 A299 RMK A01 T03980071  RH  014%=      5-min Rain = 0
KANS 122245Z 26007KT 40/07 A299 RMK A01 T03990071  RH  014%=      5-min Rain = 0
KANS 122250Z 28008G13KT 40/07 A299 RMK A01 T04020072  RH  014%=      5-min Rain = 0
KANS 122255Z 30007KT 40/07 A299 RMK A01 T04000071  RH  014%=      5-min Rain = 0
KANS 122300Z 27006KT 40/07 A2989 RMK A01 T03990073  RH  014%=      5-min Rain = 0
KANS 122305Z 28011KT 40/07 A2989 RMK A01 T03960073  RH  014%=      5-min Rain = 0
KANS 122310Z 27011KT 39/07 A2989 RMK A01 T03930070  RH  014%=      5-min Rain = 0
KANS 122315Z 28008G13KT 39/07 A2989 RMK A01 T03930068  RH  014%=      5-min Rain = 0
KANS 122320Z 24007G13KT 39/07 A2989 RMK A01 T03920068  RH  014%=      5-min Rain = 0
KANS 122325Z 25007KT 39/07 A2989 RMK A01 T03920065  RH  014%=      5-min Rain = 0
KANS 122330Z 27010G15KT 39/06 A2989 RMK A01 T03940064  RH  014%=      5-min Rain = 0
KANS 122335Z 26008G14KT 39/06 A2989 RMK A01 T03900060  RH  014%=      5-min Rain = 0
KANS 122340Z 27010G15KT 39/06 A2989 RMK A01 T03900058  RH  013%=      5-min Rain = 0
KANS 122345Z 26008G13KT 39/06 A2989 RMK A01 T03890058  RH  013%=      5-min Rain = 0
KANS 122350Z 25005KT 39/06 A2989 RMK A01 T03890059  RH  014%=      5-min Rain = 0
KANS 122355Z 24005KT 39/06 A2988 RMK A01 T03900060  RH  014%=      5-min Rain = 0
KANS 130000Z 24005KT 39/06 A2988 RMK A01 T03890057  RH  013%=      5-min Rain = 0
KANS 130005Z 29005KT 39/06 A2988 RMK A01 T03890056  RH  013%=      5-min Rain = 0
KANS 130010Z 27006G11KT 39/06 A2988 RMK A01 T03900056  RH  013%=      5-min Rain = 0
KANS 130015Z 28008KT 39/06 A2988 RMK A01 T03870056  RH  013%=      5-min Rain = 0
KANS 130020Z 27005KT 39/06 A2988 RMK A01 T03860056  RH  013%=      5-min Rain = 0
KANS 130025Z 26006KT 39/06 A2988 RMK A01 T03860060  RH  014%=      5-min Rain = 0
KANS 130030Z 25005KT 38/06 A2988 RMK A01 T03830062  RH  014%=      5-min Rain = 0
KANS 130035Z 22005KT 38/06 A2988 RMK A01 T03810063  RH  015%=      5-min Rain = 0
KANS 130040Z 21006G12KT 38/07 A2988 RMK A01 T03780067  RH  015%=      5-min Rain = 0
KANS 130045Z 26006KT 38/06 A2989 RMK A01 T03760064  RH  015%=      5-min Rain = 0
KANS 130050Z 27005KT 38/06 A2989 RMK A01 T03770060  RH  014%=      5-min Rain = 0
KANS 130055Z 26004KT 38/07 A2989 RMK A01 T03770065  RH  015%=      5-min Rain = 0
KANS 130100Z 27005KT 38/07 A2989 RMK A01 T03760069  RH  016%=      5-min Rain = 0
KANS 130105Z 27006KT 37/07 A2989 RMK A01 T03740070  RH  016%=      5-min Rain = 0
KANS 130110Z 28004KT 37/07 A2989 RMK A01 T03720072  RH  016%=      5-min Rain = 0
KANS 130115Z 27005KT 37/08 A2989 RMK A01 T03700076  RH  017%=      5-min Rain = 0
KANS 130120Z 25005KT 36/08 A2989 RMK A01 T03640078  RH  018%=      5-min Rain = 0
KANS 130125Z 25004KT 36/08 A2989 RMK A01 T03590083  RH  019%=      5-min Rain = 0
KANS 130130Z 24004KT 35/09 A2989 RMK A01 T03530086  RH  020%=      5-min Rain = 0
KANS 130135Z 24005KT 35/09 A299 RMK A01 T03470089  RH  021%=      5-min Rain = 0
KANS 130140Z 23004KT 34/09 A299 RMK A01 T03410091  RH  022%=      5-min Rain = 0
KANS 130145Z 20004KT 34/10 A299 RMK A01 T03380095  RH  023%=      5-min Rain = 0
KANS 130150Z 18004KT 34/10 A299 RMK A01 T03350095  RH  023%=      5-min Rain = 0
KANS 130155Z 18005KT 33/09 A299 RMK A01 T03320089  RH  023%=      5-min Rain = 0
KANS 130200Z 18005KT 33/09 A299 RMK A01 T03310087  RH  023%=      5-min Rain = 0
KANS 130205Z 18004KT 33/09 A299 RMK A01 T03290088  RH  023%=      5-min Rain = 0
KANS 130210Z 17004KT 33/09 A299 RMK A01 T03280088  RH  023%=      5-min Rain = 0
KANS 130215Z 18005KT 33/09 A299 RMK A01 T03250088  RH  024%=      5-min Rain = 0
KANS 130220Z 18005KT 32/09 A299 RMK A01 T03220088  RH  024%=      5-min Rain = 0
KANS 130225Z 18005KT 32/09 A2991 RMK A01 T03200087  RH  024%=      5-min Rain = 0
KANS 130230Z 19004KT 32/09 A2991 RMK A01 T03180090  RH  025%=      5-min Rain = 0
KANS 130235Z 19004KT 31/09 A2991 RMK A01 T03140092  RH  026%=      5-min Rain = 0
KANS 130240Z 20004KT 31/09 A2991 RMK A01 T03130092  RH  026%=      5-min Rain = 0
KANS 130245Z 19004KT 31/09 A2991 RMK A01 T03130094  RH  026%=      5-min Rain = 0
KANS 130250Z 19004KT 31/09 A2991 RMK A01 T03110094  RH  026%=      5-min Rain = 0
KANS 130255Z 19003KT 31/10 A2992 RMK A01 T03090095  RH  027%=      5-min Rain = 0
KANS 130300Z 19003KT 31/10 A2992 RMK A01 T03070095  RH  027%=      5-min Rain = 0
KANS 130305Z 19004KT 30/10 A2992 RMK A01 T03040095  RH  028%=      5-min Rain = 0
KANS 130310Z 19004KT 30/09 A2992 RMK A01 T03020092  RH  027%=      5-min Rain = 0
KANS 130315Z 19004KT 30/10 A2992 RMK A01 T03010096  RH  028%=      5-min Rain = 0
KANS 130320Z 21003KT 30/10 A2992 RMK A01 T03000097  RH  029%=      5-min Rain = 0
KANS 130325Z 21004KT 30/10 A2992 RMK A01 T03000098  RH  029%=      5-min Rain = 0
KANS 130330Z 22004KT 30/10 A2992 RMK A01 T02990095  RH  029%=      5-min Rain = 0
KANS 130335Z 22004KT 30/11 A2992 RMK A01 T02980107  RH  031%=      5-min Rain = 0
KANS 130340Z 22004KT 30/10 A2993 RMK A01 T02960104  RH  031%=      5-min Rain = 0
KANS 130345Z 22005KT 30/10 A2993 RMK A01 T02950102  RH  031%=      5-min Rain = 0
KANS 130350Z 23005KT 30/10 A2993 RMK A01 T02950099  RH  030%=      5-min Rain = 0
KANS 130355Z 22006KT 30/10 A2993 RMK A01 T02950098  RH  030%=      5-min Rain = 0
KANS 130400Z 23006KT 29/10 A2993 RMK A01 T02940099  RH  030%=      5-min Rain = 0
KANS 130405Z 23007KT 30/11 A2993 RMK A01 T02960105  RH  031%=      5-min Rain = 0
KANS 130410Z 24006KT 30/10 A2993 RMK A01 T02970103  RH  031%=      5-min Rain = 0
KANS 130415Z 27006KT 30/10 A2994 RMK A01 T02960096  RH  029%=      5-min Rain = 0
KANS 130420Z 27005KT 30/09 A2993 RMK A01 T02970092  RH  028%=      5-min Rain = 0
KANS 130425Z 26005KT 30/09 A2993 RMK A01 T02980093  RH  028%=      5-min Rain = 0
KANS 130430Z 27005KT 30/09 A2993 RMK A01 T02970093  RH  028%=      5-min Rain = 0
KANS 130435Z 27005KT 30/09 A2993 RMK A01 T02970093  RH  029%=      5-min Rain = 0
KANS 130440Z 28003KT 30/09 A2994 RMK A01 T02960094  RH  029%=      5-min Rain = 0
KANS 130445Z 28003KT 29/10 A2994 RMK A01 T02940095  RH  030%=      5-min Rain = 0
KANS 130450Z 29004KT 29/10 A2994 RMK A01 T02900096  RH  030%=      5-min Rain = 0
KANS 130455Z 29004KT 29/10 A2994 RMK A01 T02870097  RH  031%=      5-min Rain = 0

Page generated in 0.0113 seconds.